createdAt,value
2023-05-17T00:01:46.034Z,78.45
2023-05-17T00:04:12.661Z,65.35
2023-05-17T00:06:39.231Z,58.35
2023-05-17T00:09:05.736Z,61.25
2023-05-17T00:11:32.219Z,53.20
2023-05-17T00:13:58.664Z,56.28
2023-05-17T00:16:25.112Z,48.17
2023-05-17T00:18:51.640Z,47.15
2023-05-17T00:21:18.430Z,53.03
2023-05-17T00:23:44.908Z,59.33
2023-05-17T00:26:11.483Z,88.03
2023-05-17T00:28:37.910Z,85.90
2023-05-17T00:31:04.362Z,89.10
2023-05-17T00:33:30.845Z,76.88
2023-05-17T00:35:57.363Z,79.60
2023-05-17T00:38:23.791Z,68.07
2023-05-17T00:40:50.978Z,62.70
2023-05-17T00:43:17.436Z,61.00
2023-05-17T00:45:44.409Z,58.95
2023-05-17T00:48:11.707Z,52.35
2023-05-17T00:50:38.238Z,53.53
2023-05-17T00:53:04.849Z,49.17
2023-05-17T00:55:31.922Z,45.55
2023-05-17T00:57:58.495Z,40.83
2023-05-17T01:00:24.996Z,38.20
2023-05-17T01:02:51.705Z,34.47
2023-05-17T01:05:18.394Z,33.38
2023-05-17T01:07:44.856Z,32.17
2023-05-17T01:10:11.782Z,32.63
2023-05-17T01:12:56.875Z,30.40
2023-05-17T01:15:28.463Z,25.25
2023-05-17T01:18:04.145Z,26.17
2023-05-17T01:20:38.112Z,24.45
2023-05-17T01:23:33.610Z,23.60
2023-05-17T01:26:13.907Z,21.00
2023-05-17T01:28:43.929Z,18.70
2023-05-17T01:31:11.426Z,19.60
2023-05-17T01:33:38.857Z,19.45
2023-05-17T01:36:05.984Z,18.60
2023-05-17T01:38:32.454Z,15.43
2023-05-17T01:41:06.258Z,15.32
2023-05-17T01:43:46.858Z,13.65
2023-05-17T01:46:24.512Z,14.57
2023-05-17T01:49:18.183Z,13.60
2023-05-17T01:51:55.864Z,10.70
2023-05-17T01:54:28.162Z,11.65
2023-05-17T01:59:25.619Z,10.02
2023-05-17T02:01:55.938Z,7.47
2023-05-17T02:04:22.497Z,8.77
2023-05-17T02:06:49.175Z,8.77
2023-05-17T02:09:15.805Z,8.23
2023-05-17T02:11:42.264Z,8.13
2023-05-17T02:14:08.698Z,7.88
2023-05-17T02:16:35.117Z,6.72
2023-05-17T02:19:01.635Z,6.18
2023-05-17T02:21:28.100Z,6.32
2023-05-17T02:23:54.496Z,6.07
2023-05-17T02:26:20.964Z,6.28
2023-05-17T02:28:47.402Z,5.95
2023-05-17T02:31:13.875Z,4.82
2023-05-17T02:33:40.447Z,5.35
2023-05-17T02:36:07.191Z,3.90
2023-05-17T02:38:33.653Z,4.40
2023-05-17T02:41:00.099Z,5.00
2023-05-17T02:43:26.530Z,3.42
2023-05-17T02:45:52.937Z,3.53
2023-05-17T02:48:19.399Z,3.88
2023-05-17T02:50:45.878Z,3.30
2023-05-17T02:53:12.322Z,3.03
2023-05-17T02:55:38.751Z,3.00
2023-05-17T02:58:05.159Z,2.78
2023-05-17T03:00:31.701Z,3.08
2023-05-17T03:02:58.388Z,2.90
2023-05-17T03:05:24.940Z,2.28
2023-05-17T03:07:51.653Z,2.10
2023-05-17T03:10:18.141Z,2.42
2023-05-17T03:12:44.819Z,1.52
2023-05-17T03:15:11.593Z,2.28
2023-05-17T03:17:38.056Z,1.83
2023-05-17T03:20:06.380Z,1.80
2023-05-17T03:22:32.841Z,1.38
2023-05-17T03:24:59.295Z,1.95
2023-05-17T03:27:25.830Z,1.40
2023-05-17T03:29:52.304Z,1.17
2023-05-17T03:32:18.752Z,1.08
2023-05-17T03:34:45.327Z,1.48
2023-05-17T03:37:11.739Z,1.45
2023-05-17T03:42:05.824Z,0.60
2023-05-17T03:44:32.285Z,1.10
2023-05-17T03:46:58.724Z,1.20
2023-05-17T03:49:25.223Z,0.95
2023-05-17T03:51:51.651Z,0.93
2023-05-17T03:54:18.213Z,1.08
2023-05-17T03:56:47.175Z,0.80
2023-05-17T03:59:13.909Z,1.02
2023-05-17T04:01:41.672Z,0.88
2023-05-17T04:04:08.196Z,0.60
2023-05-17T04:06:34.889Z,0.80
2023-05-17T04:09:02.051Z,0.77
2023-05-17T04:11:28.508Z,0.77
2023-05-17T04:13:55.181Z,0.73
2023-05-17T04:16:22.079Z,0.52
2023-05-17T04:18:52.596Z,0.52
2023-05-17T04:21:19.735Z,0.43
2023-05-17T04:23:46.174Z,0.55
2023-05-17T04:26:12.606Z,0.40
2023-05-17T04:28:39.057Z,0.35
2023-05-17T04:33:36.889Z,0.40
2023-05-17T04:36:03.924Z,0.55
2023-05-17T04:38:30.490Z,0.20
2023-05-17T04:41:05.298Z,0.32
2023-05-17T04:43:32.708Z,0.25
2023-05-17T04:46:00.472Z,0.13
2023-05-17T04:48:27.715Z,0.40
2023-05-17T04:50:54.429Z,0.40
2023-05-17T04:53:20.913Z,0.30
2023-05-17T04:58:15.107Z,0.22
2023-05-17T05:00:41.591Z,0.52
2023-05-17T05:03:08.548Z,0.40
2023-05-17T05:05:35.572Z,0.20
2023-05-17T05:08:02.216Z,0.40
2023-05-17T05:10:28.828Z,2.03
2023-05-17T05:12:55.289Z,9.93
2023-05-17T05:17:48.522Z,27.63
2023-05-17T05:20:15.695Z,35.42
2023-05-17T05:22:42.136Z,38.33
2023-05-17T05:27:36.459Z,35.00
2023-05-17T05:30:03.283Z,33.70
2023-05-17T05:32:29.776Z,36.25
2023-05-17T05:34:57.227Z,35.63
2023-05-17T05:37:23.911Z,34.03
2023-05-17T05:39:50.395Z,31.08
2023-05-17T05:42:16.869Z,28.15
2023-05-17T05:44:43.323Z,29.20
2023-05-17T05:47:09.794Z,24.63
2023-05-17T05:49:36.252Z,25.60
2023-05-17T05:52:02.859Z,20.67
2023-05-17T05:54:29.315Z,22.08
2023-05-17T05:56:55.805Z,20.65
2023-05-17T05:59:22.286Z,20.08
2023-05-17T06:01:48.842Z,17.95
2023-05-17T06:04:15.397Z,16.85
2023-05-17T06:06:42.001Z,16.27
2023-05-17T06:09:12.054Z,13.82
2023-05-17T06:11:38.988Z,12.75
2023-05-17T06:14:05.429Z,12.85
2023-05-17T06:18:58.437Z,11.18
2023-05-17T06:21:25.491Z,8.50
2023-05-17T06:23:52.637Z,11.25
2023-05-17T06:26:19.042Z,10.15
2023-05-17T06:31:12.580Z,9.32
2023-05-17T06:33:39.069Z,7.45
2023-05-17T06:36:05.976Z,7.97
2023-05-17T06:38:32.488Z,8.10
2023-05-17T06:43:25.327Z,6.88
2023-05-17T06:48:18.403Z,5.20
2023-05-17T06:50:44.934Z,4.72
2023-05-17T06:55:37.910Z,4.38
2023-05-17T06:58:04.389Z,4.00
2023-05-17T07:02:58.117Z,4.95
2023-05-17T07:05:24.874Z,3.08
2023-05-17T07:07:51.422Z,3.58
2023-05-17T07:12:44.170Z,3.20
2023-05-17T07:15:11.193Z,3.20
2023-05-17T07:17:37.783Z,3.35
2023-05-17T07:20:06.141Z,3.03
2023-05-17T07:22:32.845Z,3.40
2023-05-17T07:27:25.792Z,2.05
2023-05-17T07:29:52.370Z,2.10
2023-05-17T07:32:18.902Z,3.15
2023-05-17T07:34:46.053Z,2.55
2023-05-17T07:37:12.560Z,2.67
2023-05-17T07:42:06.425Z,1.30
2023-05-17T07:44:32.898Z,1.55
2023-05-17T07:49:27.387Z,1.60
2023-05-17T07:51:55.413Z,1.65
2023-05-17T07:54:24.632Z,3.38
2023-05-17T07:56:53.101Z,25.65
2023-05-17T07:59:19.685Z,38.22
2023-05-17T08:01:46.337Z,41.53
2023-05-17T08:04:14.219Z,48.60
2023-05-17T08:06:42.241Z,43.63
2023-05-17T08:09:09.029Z,41.38
2023-05-17T08:11:35.542Z,35.17
2023-05-17T08:14:02.113Z,38.30
2023-05-17T08:16:28.648Z,57.25
2023-05-17T08:18:55.450Z,70.93
2023-05-17T08:21:22.677Z,75.10
2023-05-17T08:23:49.139Z,44.45
2023-05-17T08:28:42.274Z,13.82
2023-05-17T08:31:08.765Z,4.55
2023-05-17T08:36:07.799Z,3.50
2023-05-17T08:38:34.731Z,2.17
2023-05-17T08:41:02.079Z,3.10
2023-05-17T08:43:30.922Z,2.92
2023-05-17T08:45:59.052Z,3.47
2023-05-17T08:48:27.350Z,3.25
2023-05-17T08:50:56.380Z,3.20
2023-05-17T08:53:24.168Z,3.42
2023-05-17T08:55:53.579Z,2.92
2023-05-17T08:58:26.214Z,2.33
2023-05-17T09:00:54.310Z,1.85
2023-05-17T09:03:22.540Z,2.55
2023-05-17T09:05:52.708Z,2.38
2023-05-17T09:08:22.530Z,1.80
2023-05-17T09:10:49.749Z,6.43
2023-05-17T09:13:16.796Z,105.28
2023-05-17T09:15:44.627Z,29.23
2023-05-17T09:18:12.560Z,13.75
2023-05-17T09:20:40.092Z,12.10
2023-05-17T09:23:09.754Z,11.90
2023-05-17T09:25:37.348Z,11.23
2023-05-17T09:28:07.614Z,10.32
2023-05-17T09:30:38.002Z,10.02
2023-05-17T09:33:07.955Z,10.00
2023-05-17T09:35:35.972Z,7.63
2023-05-17T09:38:12.452Z,14.82
2023-05-17T09:40:40.738Z,72.38
2023-05-17T09:43:07.749Z,59.70
2023-05-17T09:45:36.012Z,47.20
2023-05-17T09:48:16.108Z,48.60
2023-05-17T09:50:46.168Z,46.30
2023-05-17T09:53:33.511Z,37.75
2023-05-17T09:56:01.815Z,33.53
2023-05-17T09:58:31.384Z,33.45
2023-05-17T10:01:00.659Z,29.98
2023-05-17T10:03:31.216Z,27.73
2023-05-17T10:05:58.907Z,23.90
2023-05-17T10:08:27.470Z,22.42
2023-05-17T10:10:58.605Z,30.83
2023-05-17T10:13:31.460Z,63.55
2023-05-17T10:15:58.676Z,51.55
2023-05-17T10:18:26.004Z,49.53
2023-05-17T10:20:52.836Z,47.08
2023-05-17T10:23:21.789Z,49.13
2023-05-17T10:25:49.073Z,55.03
2023-05-17T10:28:17.352Z,54.75
2023-05-17T10:30:44.286Z,56.05
2023-05-17T10:33:13.360Z,49.25
2023-05-17T10:35:43.672Z,50.55
2023-05-17T10:38:11.735Z,52.83
2023-05-17T10:40:40.539Z,66.43
2023-05-17T10:43:09.083Z,63.38
2023-05-17T10:45:36.960Z,61.17
2023-05-17T10:48:07.870Z,58.13
2023-05-17T10:50:41.102Z,57.10
2023-05-17T10:53:14.115Z,71.65
2023-05-17T10:55:42.679Z,90.05
2023-05-17T10:58:16.201Z,72.68
2023-05-17T11:00:45.957Z,71.75
2023-05-17T11:03:16.604Z,81.50
2023-05-17T11:05:45.610Z,84.30
2023-05-17T11:08:17.216Z,90.50
2023-05-17T11:11:01.758Z,99.05
2023-05-17T11:13:28.371Z,95.45
2023-05-17T11:16:05.025Z,103.68
2023-05-17T11:18:46.964Z,102.78
2023-05-17T11:21:15.168Z,111.47
2023-05-17T11:23:43.641Z,98.13
2023-05-17T11:26:22.195Z,91.75
2023-05-17T11:28:59.075Z,73.13
2023-05-17T11:31:35.188Z,76.18
2023-05-17T11:34:04.301Z,66.10
2023-05-17T11:36:31.241Z,60.28
2023-05-17T11:39:11.987Z,60.20
2023-05-17T11:41:42.688Z,55.15
2023-05-17T11:44:10.063Z,51.60
2023-05-17T11:46:37.644Z,47.20
2023-05-17T11:49:07.770Z,43.50
2023-05-17T11:51:34.689Z,37.63
2023-05-17T11:54:03.976Z,35.45
2023-05-17T11:59:09.525Z,29.23
2023-05-17T12:01:46.422Z,32.28
2023-05-17T12:04:13.303Z,25.75
2023-05-17T12:06:40.320Z,26.52
2023-05-17T12:09:10.857Z,26.05
2023-05-17T12:11:39.486Z,22.63
2023-05-17T12:14:06.577Z,19.58
2023-05-17T12:16:36.288Z,19.95
2023-05-17T12:19:03.607Z,18.75
2023-05-17T12:21:30.330Z,15.77
2023-05-17T12:23:56.758Z,17.13
2023-05-17T12:26:24.141Z,15.63
2023-05-17T12:29:00.499Z,14.32
2023-05-17T12:31:33.612Z,13.32
2023-05-17T12:34:02.467Z,10.88
2023-05-17T12:36:30.034Z,11.98
2023-05-17T12:38:57.045Z,8.90
2023-05-17T12:41:26.198Z,9.43
2023-05-17T12:43:55.012Z,10.50
2023-05-17T12:46:29.574Z,9.02
2023-05-17T12:49:01.245Z,8.00
2023-05-17T12:51:27.709Z,8.27
2023-05-17T12:53:55.778Z,7.63
2023-05-17T12:56:24.918Z,6.45
2023-05-17T12:59:12.090Z,6.50
2023-05-17T13:01:41.986Z,5.53
2023-05-17T13:04:08.545Z,5.32
2023-05-17T13:06:48.958Z,4.53
2023-05-17T13:09:18.402Z,3.78
2023-05-17T13:11:53.180Z,3.80
2023-05-17T13:14:37.739Z,3.80
2023-05-17T13:17:05.705Z,2.92
2023-05-17T13:19:32.435Z,3.42
2023-05-17T13:21:59.036Z,3.25
2023-05-17T13:24:27.830Z,3.65
2023-05-17T13:26:54.515Z,3.40
2023-05-17T13:29:35.220Z,3.20
2023-05-17T13:32:06.828Z,2.83
2023-05-17T13:34:33.344Z,2.35
2023-05-17T13:36:59.831Z,2.60
2023-05-17T13:39:26.321Z,2.55
2023-05-17T13:41:52.927Z,2.47
2023-05-17T13:44:19.384Z,2.00
2023-05-17T13:46:45.865Z,1.60
2023-05-17T13:49:12.903Z,1.65
2023-05-17T13:51:39.714Z,1.95
2023-05-17T13:54:07.208Z,1.75
2023-05-17T13:56:34.150Z,1.38
2023-05-17T13:59:00.809Z,1.80
2023-05-17T14:01:27.448Z,1.17
2023-05-17T14:03:55.196Z,1.73
2023-05-17T14:06:21.865Z,1.15
2023-05-17T14:08:48.350Z,1.20
2023-05-17T14:11:14.881Z,1.35
2023-05-17T14:13:41.596Z,1.55
2023-05-17T14:16:08.107Z,1.33
2023-05-17T14:18:34.745Z,1.13
2023-05-17T14:21:01.476Z,0.82
2023-05-17T14:23:27.914Z,0.90
2023-05-17T14:25:54.370Z,0.80
2023-05-17T14:28:20.855Z,1.05
2023-05-17T14:30:47.341Z,0.77
2023-05-17T14:33:13.912Z,0.65
2023-05-17T14:35:40.535Z,1.30
2023-05-17T14:38:07.060Z,0.95
2023-05-17T14:40:33.659Z,0.63
2023-05-17T14:43:00.121Z,0.60
2023-05-17T14:45:26.681Z,0.80
2023-05-17T14:47:53.932Z,0.90
2023-05-17T14:50:20.593Z,0.98
2023-05-17T14:52:47.227Z,0.68
2023-05-17T14:55:16.313Z,0.60
2023-05-17T14:57:43.682Z,0.50
2023-05-17T15:00:11.227Z,0.45
2023-05-17T15:02:38.569Z,0.57
2023-05-17T15:05:05.486Z,0.57
2023-05-17T15:07:33.148Z,0.73
2023-05-17T15:09:59.649Z,0.45
2023-05-17T15:12:26.135Z,0.80
2023-05-17T15:14:52.562Z,0.52
2023-05-17T15:17:19.012Z,0.30
2023-05-17T15:19:45.683Z,0.65
2023-05-17T15:22:12.305Z,0.45
2023-05-17T15:24:39.590Z,0.77
2023-05-17T15:27:06.604Z,0.68
2023-05-17T15:29:33.050Z,0.52
2023-05-17T15:31:59.525Z,0.52
2023-05-17T15:34:26.913Z,0.52
2023-05-17T15:36:55.721Z,0.52
2023-05-17T15:39:22.187Z,0.47
2023-05-17T15:41:48.662Z,0.43
2023-05-17T15:44:15.443Z,0.73
2023-05-17T15:46:41.922Z,0.63
2023-05-17T15:49:08.504Z,0.82
2023-05-17T15:51:35.088Z,0.90
2023-05-17T15:54:01.558Z,0.70
2023-05-17T15:56:28.637Z,0.82
2023-05-17T15:58:55.122Z,0.52
2023-05-17T16:01:21.613Z,0.65
2023-05-17T16:03:48.267Z,0.60
2023-05-17T16:06:14.841Z,0.43
2023-05-17T16:08:41.862Z,0.80
2023-05-17T16:11:08.456Z,1.10
2023-05-17T16:13:34.928Z,0.43
2023-05-17T16:16:01.645Z,0.32
2023-05-17T16:18:28.774Z,0.40
2023-05-17T16:21:00.164Z,0.52
2023-05-17T16:23:26.706Z,0.47
2023-05-17T16:25:54.526Z,0.63
2023-05-17T16:28:21.561Z,0.60
2023-05-17T16:30:49.318Z,0.40
2023-05-17T16:33:16.215Z,0.47
2023-05-17T16:35:43.654Z,0.40
2023-05-17T16:38:10.132Z,0.40
2023-05-17T16:40:38.488Z,0.13
2023-05-17T16:43:04.931Z,0.43
2023-05-17T16:45:31.406Z,0.40
2023-05-17T16:47:57.977Z,0.43
2023-05-17T16:50:24.498Z,0.35
2023-05-17T16:52:51.030Z,0.30
2023-05-17T16:55:17.564Z,0.22
2023-05-17T16:57:44.064Z,0.65
2023-05-17T17:00:12.009Z,0.47
2023-05-17T17:02:38.524Z,0.43
2023-05-17T17:05:05.257Z,0.38
2023-05-17T17:07:31.760Z,0.68
2023-05-17T17:09:58.177Z,0.73
2023-05-17T17:12:26.223Z,0.52
2023-05-17T17:14:53.645Z,0.52
2023-05-17T17:17:20.190Z,0.40
2023-05-17T17:19:46.690Z,0.32
2023-05-17T17:22:14.592Z,2.35
2023-05-17T17:24:41.129Z,12.35
2023-05-17T17:27:07.670Z,15.57
2023-05-17T17:29:34.173Z,22.13
2023-05-17T17:32:00.970Z,25.15
2023-05-17T17:34:27.419Z,28.80
2023-05-17T17:36:54.151Z,36.25
2023-05-17T17:39:20.716Z,38.05
2023-05-17T17:41:47.197Z,40.63
2023-05-17T17:44:14.012Z,42.38
2023-05-17T17:46:40.716Z,40.42
2023-05-17T17:49:07.245Z,37.42
2023-05-17T17:51:33.777Z,39.88
2023-05-17T17:54:00.516Z,36.75
2023-05-17T17:56:27.036Z,34.22
2023-05-17T17:58:55.906Z,33.00
2023-05-17T18:01:23.116Z,31.90
2023-05-17T18:03:49.642Z,30.17
2023-05-17T18:06:16.214Z,28.17
2023-05-17T18:08:42.714Z,27.17
2023-05-17T18:11:09.210Z,26.17
2023-05-17T18:13:35.842Z,35.03
2023-05-17T18:16:02.502Z,89.53
2023-05-17T18:18:28.983Z,86.25
2023-05-17T18:20:55.645Z,63.50
2023-05-17T18:23:22.168Z,66.90
2023-05-17T18:25:50.552Z,71.50
2023-05-17T18:28:21.690Z,61.70
2023-05-17T18:30:58.061Z,62.72
2023-05-17T18:33:25.432Z,55.45
2023-05-17T18:35:51.927Z,52.05
2023-05-17T18:38:18.450Z,50.05
2023-05-17T18:40:45.073Z,45.95
2023-05-17T18:43:12.802Z,41.28
2023-05-17T18:45:39.360Z,40.22
2023-05-17T18:48:06.283Z,40.85
2023-05-17T18:50:32.987Z,38.15
2023-05-17T18:53:00.748Z,42.83
2023-05-17T18:55:27.182Z,101.47
2023-05-17T18:57:53.765Z,103.18
2023-05-17T19:00:21.075Z,84.00
2023-05-17T19:02:48.044Z,76.28
2023-05-17T19:05:14.763Z,80.43
2023-05-17T19:07:41.325Z,70.80
2023-05-17T19:10:08.183Z,71.28
2023-05-17T19:12:35.426Z,61.78
2023-05-17T19:15:02.626Z,63.33
2023-05-17T19:17:29.260Z,53.10
2023-05-17T19:19:55.884Z,52.65
2023-05-17T19:22:22.441Z,56.05
2023-05-17T19:24:50.465Z,102.80
2023-05-17T19:27:19.520Z,105.65
2023-05-17T19:29:48.018Z,112.13
2023-05-17T19:32:14.486Z,101.30
2023-05-17T19:34:41.406Z,92.88
2023-05-17T19:37:07.847Z,82.85
2023-05-17T19:42:00.638Z,65.63
2023-05-17T19:44:27.206Z,93.53
2023-05-17T19:46:53.953Z,128.80
2023-05-17T19:49:20.829Z,134.38
2023-05-17T19:51:48.180Z,128.38
2023-05-17T19:54:14.878Z,123.28
2023-05-17T19:56:41.396Z,105.93
2023-05-17T19:59:07.934Z,105.05
2023-05-17T20:01:34.510Z,96.55
2023-05-17T20:04:01.094Z,96.30
2023-05-17T20:06:27.634Z,117.30
2023-05-17T20:11:21.356Z,123.57
2023-05-17T20:13:47.761Z,83.28
2023-05-17T20:18:43.219Z,76.47
2023-05-17T20:21:12.349Z,67.75
2023-05-17T20:23:38.868Z,64.95
2023-05-17T20:26:05.662Z,67.32
2023-05-17T20:28:32.163Z,61.05
2023-05-17T20:30:58.847Z,56.53
2023-05-17T20:33:26.655Z,50.22
2023-05-17T20:35:53.957Z,48.20
2023-05-17T20:38:21.484Z,40.50
2023-05-17T20:40:47.981Z,45.75
2023-05-17T20:43:14.579Z,63.10
2023-05-17T20:45:41.095Z,66.05
2023-05-17T20:48:07.756Z,74.00
2023-05-17T20:50:34.341Z,66.90
2023-05-17T20:53:01.188Z,67.35
2023-05-17T20:55:27.738Z,64.75
2023-05-17T20:57:54.393Z,59.40
2023-05-17T21:00:21.265Z,52.38
2023-05-17T21:02:47.907Z,50.95
2023-05-17T21:05:14.710Z,46.28
2023-05-17T21:07:41.161Z,42.20
2023-05-17T21:10:08.745Z,38.25
2023-05-17T21:12:35.993Z,35.83
2023-05-17T21:15:15.728Z,37.60
2023-05-17T21:17:43.442Z,33.55
2023-05-17T21:20:10.733Z,28.80
2023-05-17T21:22:37.588Z,27.05
2023-05-17T21:25:04.539Z,26.10
2023-05-17T21:27:31.191Z,23.42
2023-05-17T21:29:57.708Z,21.90
2023-05-17T21:32:24.208Z,20.55
2023-05-17T21:34:52.912Z,19.52
2023-05-17T21:37:20.933Z,19.00
2023-05-17T21:39:47.368Z,17.15
2023-05-17T21:42:13.816Z,15.23
2023-05-17T21:44:40.224Z,14.27
2023-05-17T21:47:06.759Z,13.63
2023-05-17T21:49:33.224Z,13.07
2023-05-17T21:51:59.667Z,11.15
2023-05-17T21:54:26.189Z,10.88
2023-05-17T21:56:52.742Z,10.60
2023-05-17T21:59:19.191Z,10.63
2023-05-17T22:01:45.731Z,8.88
2023-05-17T22:04:12.316Z,7.53
2023-05-17T22:06:38.769Z,7.95
2023-05-17T22:09:06.747Z,8.05
2023-05-17T22:11:33.831Z,8.23
2023-05-17T22:14:00.341Z,6.22
2023-05-17T22:16:26.883Z,6.80
2023-05-17T22:18:53.450Z,5.90
2023-05-17T22:21:19.999Z,4.72
2023-05-17T22:23:46.435Z,4.70
2023-05-17T22:26:12.928Z,4.38
2023-05-17T22:28:39.357Z,3.90
2023-05-17T22:31:07.529Z,3.72
2023-05-17T22:33:35.617Z,3.60
2023-05-17T22:36:03.611Z,3.05
2023-05-17T22:38:30.102Z,3.25
2023-05-17T22:40:56.519Z,3.47
2023-05-17T22:43:22.995Z,3.10
2023-05-17T22:45:49.988Z,3.25
2023-05-17T22:48:16.517Z,2.45
2023-05-17T22:50:43.072Z,2.30
2023-05-17T22:53:11.253Z,2.22
2023-05-17T22:55:37.707Z,2.20
2023-05-17T22:58:04.146Z,2.10
2023-05-17T23:00:30.589Z,2.08
2023-05-17T23:02:57.113Z,2.03
2023-05-17T23:05:23.562Z,1.92
2023-05-17T23:07:50.015Z,1.35
2023-05-17T23:10:16.472Z,1.38
2023-05-17T23:12:43.120Z,1.73
2023-05-17T23:15:10.535Z,1.60
2023-05-17T23:17:38.891Z,1.80
2023-05-17T23:20:09.850Z,1.48
2023-05-17T23:22:38.687Z,1.48
2023-05-17T23:25:06.075Z,1.55
2023-05-17T23:27:33.140Z,1.02
2023-05-17T23:30:00.963Z,1.13
2023-05-17T23:32:28.228Z,0.88
2023-05-17T23:34:58.301Z,1.10
2023-05-17T23:37:24.984Z,0.95
2023-05-17T23:39:51.397Z,0.77
2023-05-17T23:42:19.009Z,0.55
2023-05-17T23:44:49.086Z,1.15
2023-05-17T23:47:15.870Z,0.85
2023-05-17T23:49:42.320Z,0.60
2023-05-17T23:52:10.925Z,0.63
2023-05-17T23:54:39.307Z,1.08
2023-05-17T23:57:06.803Z,0.63
2023-05-17T23:59:34.172Z,0.70
